createdAt,value
2018-03-11T00:00:48.250Z,3.90
2018-03-11T00:03:23.561Z,3.90
2018-03-11T00:05:58.657Z,4.00
2018-03-11T00:08:35.092Z,4.10
2018-03-11T00:11:11.630Z,4.20
2018-03-11T00:13:47.391Z,4.10
2018-03-11T00:16:22.555Z,4.10
2018-03-11T00:18:58.727Z,4.10
2018-03-11T00:21:35.147Z,4.00
2018-03-11T00:24:10.526Z,3.90
2018-03-11T00:26:46.416Z,3.90
2018-03-11T00:29:22.010Z,3.80
2018-03-11T00:31:57.370Z,3.80
2018-03-11T00:34:33.829Z,3.80
2018-03-11T00:37:09.604Z,3.70
2018-03-11T00:39:45.953Z,3.70
2018-03-11T00:42:21.607Z,3.60
2018-03-11T00:44:57.464Z,3.60
2018-03-11T00:47:32.638Z,3.50
2018-03-11T00:50:02.984Z,3.60
2018-03-11T00:52:39.146Z,3.50
2018-03-11T00:55:15.020Z,3.50
2018-03-11T00:57:50.016Z,3.50
2018-03-11T01:00:20.712Z,3.60
2018-03-11T01:02:56.238Z,3.60
2018-03-11T01:05:32.674Z,3.50
2018-03-11T01:08:09.255Z,3.40
2018-03-11T01:10:45.279Z,3.50
2018-03-11T01:13:22.360Z,3.50
2018-03-11T01:15:53.466Z,3.70
2018-03-11T01:18:29.226Z,3.70
2018-03-11T01:21:05.056Z,3.60
2018-03-11T01:23:40.402Z,3.50
2018-03-11T01:26:15.920Z,3.50
2018-03-11T01:28:51.236Z,3.50
2018-03-11T01:31:22.332Z,3.60
2018-03-11T01:33:57.072Z,3.60
2018-03-11T01:36:33.638Z,3.50
2018-03-11T01:39:09.016Z,3.40
2018-03-11T01:41:44.198Z,3.40
2018-03-11T01:44:19.086Z,3.30
2018-03-11T01:46:55.676Z,3.30
2018-03-11T01:49:30.950Z,3.20
2018-03-11T01:52:07.034Z,3.20
2018-03-11T01:54:42.068Z,3.10
2018-03-11T01:57:18.464Z,3.10
2018-03-11T01:59:53.662Z,3.20
2018-03-11T02:02:24.790Z,3.30
2018-03-11T02:04:55.913Z,3.50
2018-03-11T02:07:35.674Z,3.80
2018-03-11T02:10:10.746Z,4.00
2018-03-11T02:12:45.976Z,4.00
2018-03-11T02:15:16.439Z,4.00
2018-03-11T02:17:53.132Z,4.00
2018-03-11T02:20:28.610Z,4.00
2018-03-11T02:23:05.220Z,3.90
2018-03-11T02:25:40.372Z,3.90
2018-03-11T02:28:14.894Z,4.00
2018-03-11T02:30:47.277Z,4.10
2018-03-11T02:33:22.530Z,4.10
2018-03-11T02:35:57.674Z,4.20
2018-03-11T02:38:33.476Z,4.30
2018-03-11T02:41:08.864Z,4.30
2018-03-11T02:43:44.980Z,4.30
2018-03-11T02:46:16.040Z,4.30
2018-03-11T02:48:51.358Z,4.40
2018-03-11T02:51:26.658Z,4.40
2018-03-11T02:54:02.026Z,4.40
2018-03-11T02:56:37.328Z,4.40
2018-03-11T02:59:12.754Z,4.40
2018-03-11T03:01:47.692Z,4.40
2018-03-11T03:04:23.358Z,4.50
2018-03-11T03:06:58.956Z,4.40
2018-03-11T03:09:33.965Z,4.40
2018-03-11T03:12:09.448Z,4.40
2018-03-11T03:14:45.106Z,4.30
2018-03-11T03:17:21.057Z,4.20
2018-03-11T03:19:56.761Z,4.20
2018-03-11T03:22:32.118Z,4.10
2018-03-11T03:25:08.714Z,4.00
2018-03-11T03:27:43.935Z,4.00
2018-03-11T03:30:14.300Z,4.00
2018-03-11T03:32:49.290Z,4.00
2018-03-11T03:35:24.186Z,4.00
2018-03-11T03:37:59.688Z,4.10
2018-03-11T03:40:30.836Z,4.00
2018-03-11T03:43:06.104Z,4.00
2018-03-11T03:45:37.063Z,4.00
2018-03-11T03:48:12.778Z,3.90
2018-03-11T03:50:47.796Z,3.80
2018-03-11T03:53:23.148Z,3.70
2018-03-11T03:55:58.471Z,3.60
2018-03-11T03:58:33.908Z,3.40
2018-03-11T04:01:04.906Z,3.30
2018-03-11T04:03:41.017Z,3.30
2018-03-11T04:06:16.422Z,3.20
2018-03-11T04:08:51.844Z,3.20
2018-03-11T04:11:28.226Z,3.20
2018-03-11T04:14:04.231Z,3.20
2018-03-11T04:16:39.925Z,3.30
2018-03-11T04:19:15.962Z,3.40
2018-03-11T04:21:51.188Z,3.40
2018-03-11T04:24:26.108Z,3.40
2018-03-11T04:27:02.130Z,3.40
2018-03-11T04:29:37.873Z,3.30
2018-03-11T04:32:13.574Z,3.20
2018-03-11T04:34:49.208Z,3.00
2018-03-11T04:37:25.095Z,2.90
2018-03-11T04:39:59.967Z,2.80
2018-03-11T04:42:35.603Z,2.70
2018-03-11T04:45:09.583Z,2.50
2018-03-11T04:47:44.974Z,2.40
2018-03-11T04:50:21.530Z,2.40
2018-03-11T04:52:52.581Z,2.30
2018-03-11T04:55:28.768Z,2.20
2018-03-11T04:58:04.145Z,2.20
2018-03-11T05:00:37.426Z,2.10
2018-03-11T05:03:12.582Z,2.00
2018-03-11T05:05:48.238Z,2.00
2018-03-11T05:08:25.435Z,2.10
2018-03-11T05:11:00.343Z,2.10
2018-03-11T05:13:36.708Z,2.30
2018-03-11T05:16:08.532Z,2.30
2018-03-11T05:18:44.184Z,2.30
2018-03-11T05:21:20.004Z,2.40
2018-03-11T05:23:51.135Z,2.60
2018-03-11T05:26:26.338Z,2.60
2018-03-11T05:29:01.716Z,2.70
2018-03-11T05:31:36.766Z,2.80
2018-03-11T05:34:12.801Z,2.90
2018-03-11T05:36:47.827Z,2.90
2018-03-11T05:39:24.041Z,3.10
2018-03-11T05:41:59.338Z,3.00
2018-03-11T05:44:34.624Z,3.20
2018-03-11T05:47:09.400Z,3.30
2018-03-11T05:49:45.294Z,3.40
2018-03-11T05:52:21.032Z,3.50
2018-03-11T05:54:57.831Z,3.40
2018-03-11T05:57:32.924Z,3.50
2018-03-11T06:00:03.860Z,3.60
2018-03-11T06:02:39.470Z,3.70
2018-03-11T06:05:10.448Z,3.70
2018-03-11T06:07:47.788Z,4.00
2018-03-11T06:10:23.062Z,4.00
2018-03-11T06:12:59.815Z,4.10
2018-03-11T06:15:31.162Z,4.20
2018-03-11T06:18:06.169Z,4.20
2018-03-11T06:20:41.599Z,4.30
2018-03-11T06:23:16.993Z,4.40
2018-03-11T06:25:53.312Z,4.70
2018-03-11T06:28:28.662Z,4.70
2018-03-11T06:30:59.818Z,4.80
2018-03-11T06:33:35.351Z,4.90
2018-03-11T06:36:10.031Z,5.10
2018-03-11T06:38:43.208Z,5.40
2018-03-11T06:41:14.557Z,5.40
2018-03-11T06:43:47.002Z,5.50
2018-03-11T06:46:17.933Z,5.70
2018-03-11T06:48:54.095Z,5.80
2018-03-11T06:51:30.900Z,6.10
2018-03-11T06:54:05.584Z,6.00
2018-03-11T06:56:38.671Z,6.20
2018-03-11T06:59:14.478Z,6.30
2018-03-11T07:01:45.344Z,6.50
2018-03-11T07:04:20.487Z,6.70
2018-03-11T07:16:42.550Z,7.70
2018-03-11T07:19:13.680Z,7.90
2018-03-11T07:21:51.373Z,7.80
2018-03-11T07:24:21.716Z,8.10
2018-03-11T07:26:54.674Z,8.30
2018-03-11T07:29:25.451Z,8.50
2018-03-11T07:32:03.918Z,8.70
2018-03-11T07:34:34.336Z,8.80
2018-03-11T07:37:15.203Z,9.00
2018-03-11T07:39:51.762Z,9.20
2018-03-11T07:45:20.395Z,9.40
2018-03-11T07:50:38.699Z,9.60
2018-03-11T07:53:11.052Z,9.60
2018-03-11T07:55:44.044Z,9.50
2018-03-11T07:58:21.529Z,9.50
2018-03-11T08:01:17.210Z,9.50
2018-03-11T08:03:47.636Z,9.60
2018-03-11T08:06:31.783Z,9.70
2018-03-11T08:09:06.365Z,9.60
2018-03-11T08:11:59.049Z,9.80
2018-03-11T08:17:25.716Z,9.90
2018-03-11T08:19:56.858Z,10.00
2018-03-11T08:22:41.291Z,10.20
2018-03-11T08:25:16.824Z,10.50
2018-03-11T08:27:50.060Z,11.00
2018-03-11T08:30:27.180Z,11.50
2018-03-11T08:32:59.212Z,12.00
2018-03-11T08:35:36.433Z,12.40
2018-03-11T08:38:12.292Z,12.80
2018-03-11T08:40:43.933Z,13.10
2018-03-11T08:43:22.015Z,13.30
2018-03-11T08:45:52.619Z,13.20
2018-03-11T08:48:22.997Z,13.50
2018-03-11T08:51:03.787Z,13.60
2018-03-11T08:53:44.477Z,13.80
2018-03-11T08:56:16.560Z,14.00
2018-03-11T08:58:48.173Z,14.10
2018-03-11T09:01:18.584Z,14.30
2018-03-11T09:03:50.903Z,14.50
2018-03-11T09:06:22.056Z,14.50
2018-03-11T09:08:52.715Z,14.80
2018-03-11T09:11:28.405Z,15.00
2018-03-11T09:14:01.053Z,15.10
2018-03-11T09:16:34.991Z,15.10
2018-03-11T09:19:07.295Z,15.00
2018-03-11T09:21:38.540Z,15.20
2018-03-11T09:24:09.886Z,15.50
2018-03-11T09:26:41.020Z,15.70
2018-03-11T09:29:18.004Z,15.70
2018-03-11T09:31:48.438Z,15.70
2018-03-11T09:34:19.576Z,15.60
2018-03-11T09:36:52.444Z,15.60
2018-03-11T09:39:27.151Z,15.80
2018-03-11T09:44:44.245Z,15.70
2018-03-11T09:47:18.106Z,15.40
2018-03-11T09:49:49.570Z,15.50
2018-03-11T09:52:20.741Z,15.30
2018-03-11T09:54:55.977Z,15.30
2018-03-11T09:57:31.407Z,15.30
2018-03-11T10:00:03.348Z,15.40
2018-03-11T10:02:37.990Z,15.60
2018-03-11T10:05:13.055Z,15.70
2018-03-11T10:07:44.168Z,15.80
2018-03-11T10:10:19.252Z,15.90
2018-03-11T10:12:54.112Z,16.10
2018-03-11T10:19:38.608Z,16.20
2018-03-11T10:22:11.776Z,16.10
2018-03-11T10:24:46.022Z,16.10
2018-03-11T10:27:17.338Z,16.30
2018-03-11T10:29:57.684Z,16.50
2018-03-11T10:32:28.804Z,16.80
2018-03-11T10:35:02.774Z,16.70
2018-03-11T10:40:18.906Z,17.20
2018-03-11T10:43:17.570Z,17.40
2018-03-11T10:45:49.391Z,17.30
2018-03-11T10:51:32.497Z,17.00
2018-03-11T10:54:09.420Z,16.60
2018-03-11T10:56:42.859Z,16.00
2018-03-11T10:59:15.412Z,16.00
2018-03-11T11:01:47.293Z,15.80
2018-03-11T11:04:22.016Z,15.60
2018-03-11T11:07:03.562Z,16.10
2018-03-11T11:09:44.437Z,16.90
2018-03-11T11:12:16.261Z,17.20
2018-03-11T11:14:47.866Z,17.40
2018-03-11T11:17:23.314Z,17.30
2018-03-11T11:19:54.354Z,17.70
2018-03-11T11:22:26.466Z,18.00
2018-03-11T11:24:58.367Z,18.10
2018-03-11T11:27:31.097Z,18.10
2018-03-11T11:30:03.448Z,18.00
2018-03-11T11:32:42.600Z,17.50
2018-03-11T11:35:15.256Z,17.40
2018-03-11T11:37:50.450Z,17.60
2018-03-11T11:40:25.004Z,17.60
2018-03-11T11:43:00.484Z,17.60
2018-03-11T11:45:34.052Z,17.60
2018-03-11T11:48:09.681Z,17.40
2018-03-11T11:50:45.132Z,17.50
2018-03-11T11:53:16.728Z,17.70
2018-03-11T11:55:51.751Z,17.60
2018-03-11T11:58:27.028Z,17.80
2018-03-11T12:00:58.006Z,17.90
2018-03-11T12:03:33.862Z,17.70
2018-03-11T12:06:09.296Z,17.60
2018-03-11T12:08:45.291Z,17.60
2018-03-11T12:11:20.172Z,17.60
2018-03-11T12:13:55.184Z,17.80
2018-03-11T12:16:26.226Z,17.70
2018-03-11T12:19:01.722Z,18.00
2018-03-11T12:21:36.525Z,18.10
2018-03-11T12:24:11.632Z,18.10
2018-03-11T12:26:46.786Z,18.10
2018-03-11T12:29:22.116Z,18.30
2018-03-11T12:31:57.278Z,18.20
2018-03-11T12:34:32.282Z,18.20
2018-03-11T12:37:07.322Z,18.20
2018-03-11T12:39:42.544Z,18.10
2018-03-11T12:42:17.658Z,17.90
2018-03-11T12:44:54.379Z,17.60
2018-03-11T12:47:28.903Z,17.50
2018-03-11T12:50:03.878Z,17.40
2018-03-11T12:52:39.160Z,17.30
2018-03-11T12:55:14.762Z,17.30
2018-03-11T12:57:50.798Z,17.40
2018-03-11T13:00:21.812Z,17.40
2018-03-11T13:02:56.532Z,17.50
2018-03-11T13:05:31.747Z,17.90
2018-03-11T13:08:06.639Z,18.10
2018-03-11T13:10:42.876Z,18.30
2018-03-11T13:13:18.854Z,18.20
2018-03-11T13:15:49.867Z,18.30
2018-03-11T13:18:26.060Z,18.20
2018-03-11T13:21:16.026Z,18.10
2018-03-11T13:23:51.137Z,18.10
2018-03-11T13:26:26.309Z,18.20
2018-03-11T13:29:00.631Z,18.20
2018-03-11T13:31:36.802Z,18.30
2018-03-11T13:34:30.175Z,18.30
2018-03-11T13:37:05.359Z,18.20
2018-03-11T13:39:49.387Z,18.30
2018-03-11T13:42:25.235Z,18.10
2018-03-11T13:45:08.601Z,17.90
2018-03-11T13:47:43.465Z,17.60
2018-03-11T13:50:19.267Z,17.10
2018-03-11T13:53:04.252Z,17.10
2018-03-11T13:55:38.651Z,17.00
2018-03-11T14:01:17.867Z,16.10
2018-03-11T14:03:54.063Z,16.00
2018-03-11T14:06:29.083Z,15.90
2018-03-11T14:09:04.079Z,15.90
2018-03-11T14:11:39.831Z,15.90
2018-03-11T14:14:15.240Z,15.80
2018-03-11T14:16:51.076Z,15.70
2018-03-11T14:19:26.622Z,15.60
2018-03-11T14:22:01.510Z,15.50
2018-03-11T14:24:37.866Z,15.40
2018-03-11T14:27:12.578Z,15.40
2018-03-11T14:29:47.643Z,15.40
2018-03-11T14:32:23.368Z,15.30
2018-03-11T14:34:58.377Z,15.30
2018-03-11T14:37:33.326Z,15.30
2018-03-11T14:40:08.903Z,15.30
2018-03-11T14:42:44.478Z,15.20
2018-03-11T14:45:16.479Z,15.10
2018-03-11T14:47:52.256Z,15.10
2018-03-11T14:50:27.612Z,15.00
2018-03-11T14:53:03.151Z,14.80
2018-03-11T14:55:39.394Z,14.80
2018-03-11T14:58:15.242Z,14.70
2018-03-11T15:00:46.253Z,14.60
2018-03-11T15:03:21.335Z,14.60
2018-03-11T15:05:56.629Z,14.60
2018-03-11T15:08:31.438Z,14.50
2018-03-11T15:11:06.448Z,14.40
2018-03-11T15:13:42.434Z,14.30
2018-03-11T15:16:13.604Z,14.30
2018-03-11T15:18:48.208Z,14.20
2018-03-11T15:21:23.304Z,14.10
2018-03-11T15:23:58.368Z,14.00
2018-03-11T15:26:33.309Z,13.90
2018-03-11T15:29:08.338Z,13.80
2018-03-11T15:31:43.402Z,13.80
2018-03-11T15:34:18.198Z,13.70
2018-03-11T15:36:53.444Z,13.50
2018-03-11T15:39:28.145Z,13.40
2018-03-11T15:42:04.072Z,13.20
2018-03-11T15:44:39.086Z,13.10
2018-03-11T15:47:14.196Z,13.10
2018-03-11T15:49:50.249Z,13.00
2018-03-11T15:52:25.328Z,12.90
2018-03-11T15:55:00.286Z,12.80
2018-03-11T15:57:36.449Z,12.70
2018-03-11T16:00:10.804Z,12.60
2018-03-11T16:02:46.235Z,12.60
2018-03-11T16:05:20.778Z,12.50
2018-03-11T16:07:55.969Z,12.40
2018-03-11T16:10:30.681Z,12.30
2018-03-11T16:13:06.914Z,12.30
2018-03-11T16:15:38.082Z,12.30
2018-03-11T16:18:13.813Z,12.30
2018-03-11T16:20:48.739Z,12.20
2018-03-11T16:23:24.122Z,12.10
2018-03-11T16:25:58.842Z,11.90
2018-03-11T16:28:34.180Z,11.80
2018-03-11T16:31:05.322Z,11.80
2018-03-11T16:33:40.319Z,11.70
2018-03-11T16:36:15.168Z,11.60
2018-03-11T16:38:50.166Z,11.40
2018-03-11T16:41:24.856Z,11.30
2018-03-11T16:44:00.137Z,11.10
2018-03-11T16:46:31.212Z,10.90
2018-03-11T16:49:06.398Z,10.80
2018-03-11T16:51:42.076Z,10.70
2018-03-11T16:54:17.139Z,10.60
2018-03-11T16:56:52.220Z,10.60
2018-03-11T16:59:27.362Z,10.50
2018-03-11T17:02:02.152Z,10.40
2018-03-11T17:04:33.176Z,10.50
2018-03-11T17:07:07.894Z,10.50
2018-03-11T17:09:43.124Z,10.40
2018-03-11T17:12:17.969Z,10.30
2018-03-11T17:14:53.600Z,10.20
2018-03-11T17:17:24.531Z,10.10
2018-03-11T17:20:00.322Z,10.00
2018-03-11T17:22:35.314Z,9.90
2018-03-11T17:25:10.405Z,9.80
2018-03-11T17:27:46.317Z,9.70
2018-03-11T17:30:16.450Z,9.50
2018-03-11T17:32:51.032Z,9.30
2018-03-11T17:35:25.994Z,9.20
2018-03-11T17:38:00.964Z,9.10
2018-03-11T17:40:36.942Z,9.10
2018-03-11T17:43:12.513Z,9.10
2018-03-11T17:45:43.295Z,9.10
2018-03-11T17:48:18.406Z,9.30
2018-03-11T17:50:53.074Z,9.20
2018-03-11T17:53:27.962Z,9.30
2018-03-11T17:56:02.855Z,9.30
2018-03-11T17:58:38.461Z,9.30
2018-03-11T18:01:09.597Z,9.20
2018-03-11T18:03:44.382Z,9.30
2018-03-11T18:06:19.394Z,9.10
2018-03-11T18:08:55.279Z,8.90
2018-03-11T18:11:30.239Z,8.80
2018-03-11T18:14:04.822Z,8.70
2018-03-11T18:16:39.861Z,8.60
2018-03-11T18:19:15.796Z,8.50
2018-03-11T18:21:50.558Z,8.30
2018-03-11T18:24:25.496Z,8.20
2018-03-11T18:27:00.655Z,8.10
2018-03-11T18:29:35.680Z,8.00
2018-03-11T18:32:11.077Z,7.90
2018-03-11T18:34:46.002Z,7.90
2018-03-11T18:37:21.056Z,7.70
2018-03-11T18:39:56.545Z,7.70
2018-03-11T18:42:31.392Z,7.60
2018-03-11T18:45:06.741Z,7.50
2018-03-11T18:47:42.717Z,7.50
2018-03-11T18:50:17.570Z,7.50
2018-03-11T18:52:52.686Z,7.50
2018-03-11T18:55:28.123Z,7.60
2018-03-11T18:58:02.737Z,7.60
2018-03-11T19:00:33.814Z,7.60
2018-03-11T19:03:09.938Z,7.70
2018-03-11T19:05:44.906Z,7.60
2018-03-11T19:08:19.942Z,7.50
2018-03-11T19:10:54.534Z,7.30
2018-03-11T19:13:30.472Z,7.10
2018-03-11T19:16:01.549Z,7.10
2018-03-11T19:18:37.589Z,6.90
2018-03-11T19:21:13.671Z,6.90
2018-03-11T19:23:48.734Z,6.80
2018-03-11T19:26:23.447Z,7.00
2018-03-11T19:28:58.348Z,7.00
2018-03-11T19:31:33.913Z,7.10
2018-03-11T19:34:08.905Z,7.30
2018-03-11T19:36:43.658Z,7.40
2018-03-11T19:39:19.962Z,7.80
2018-03-11T19:41:55.418Z,7.70
2018-03-11T19:44:30.661Z,8.00
2018-03-11T19:47:06.003Z,8.40
2018-03-11T19:49:40.944Z,8.40
2018-03-11T19:52:16.058Z,8.60
2018-03-11T19:54:51.248Z,8.60
2018-03-11T19:57:26.743Z,8.80
2018-03-11T20:00:01.935Z,8.80
2018-03-11T20:02:37.507Z,9.20
2018-03-11T20:05:12.688Z,9.10
2018-03-11T20:07:47.602Z,9.20
2018-03-11T20:10:23.069Z,9.20
2018-03-11T20:12:57.871Z,9.10
2018-03-11T20:15:33.005Z,9.10
2018-03-11T20:18:07.907Z,9.00
2018-03-11T20:20:42.733Z,8.90
2018-03-11T20:23:17.529Z,8.80
2018-03-11T20:25:52.852Z,8.70
2018-03-11T20:28:27.540Z,8.70
2018-03-11T20:31:02.132Z,8.60
2018-03-11T20:33:37.715Z,8.50
2018-03-11T20:36:12.405Z,8.40
2018-03-11T20:38:47.103Z,8.40
2018-03-11T20:41:22.347Z,8.40
2018-03-11T20:43:57.066Z,8.40
2018-03-11T20:46:32.502Z,8.40
2018-03-11T20:49:07.133Z,8.40
2018-03-11T20:51:43.196Z,8.40
2018-03-11T20:54:17.961Z,8.40
2018-03-11T20:56:52.674Z,8.40
2018-03-11T20:59:27.343Z,8.30
2018-03-11T21:02:03.244Z,8.20
2018-03-11T21:04:38.521Z,8.10
2018-03-11T21:07:13.596Z,8.10
2018-03-11T21:09:48.609Z,8.10
2018-03-11T21:12:22.622Z,8.10
2018-03-11T21:14:57.301Z,8.20
2018-03-11T21:17:32.978Z,8.00
2018-03-11T21:20:07.493Z,7.90
2018-03-11T21:22:42.343Z,8.00
2018-03-11T21:25:16.965Z,7.90
2018-03-11T21:27:51.959Z,7.90
2018-03-11T21:30:36.246Z,7.80
2018-03-11T21:33:11.502Z,7.80
2018-03-11T21:35:46.024Z,7.80
2018-03-11T21:38:20.847Z,8.00
2018-03-11T21:40:55.860Z,7.90
2018-03-11T21:43:31.481Z,7.90
2018-03-11T21:46:02.451Z,7.90
2018-03-11T21:48:38.482Z,7.90
2018-03-11T21:51:13.800Z,7.80
2018-03-11T21:53:49.025Z,7.80
2018-03-11T21:56:23.799Z,7.80
2018-03-11T21:58:58.387Z,7.80
2018-03-11T22:01:33.223Z,7.80
2018-03-11T22:04:08.482Z,7.90
2018-03-11T22:06:43.346Z,7.90
2018-03-11T22:09:18.406Z,7.80
2018-03-11T22:11:53.126Z,7.70
2018-03-11T22:14:27.975Z,7.90
2018-03-11T22:17:02.495Z,8.00
2018-03-11T22:19:37.433Z,8.00
2018-03-11T22:22:11.979Z,8.00
2018-03-11T22:24:46.847Z,8.00
2018-03-11T22:27:21.548Z,8.10
2018-03-11T22:29:56.615Z,8.10
2018-03-11T22:32:31.408Z,8.00
2018-03-11T22:35:06.588Z,8.00
2018-03-11T22:37:41.468Z,8.00
2018-03-11T22:40:16.602Z,8.00
2018-03-11T22:42:51.383Z,8.00
2018-03-11T22:45:22.398Z,8.00
2018-03-11T22:47:57.751Z,8.10
2018-03-11T22:50:32.737Z,8.00
2018-03-11T22:53:07.410Z,8.10
2018-03-11T22:55:42.410Z,8.10
2018-03-11T22:58:17.077Z,8.10
2018-03-11T23:00:47.687Z,8.00
2018-03-11T23:03:22.148Z,7.90
2018-03-11T23:05:57.361Z,8.00
2018-03-11T23:08:32.007Z,8.00
2018-03-11T23:11:06.244Z,7.90
